sensor_id;sensor_type;location;lat;lon;timestamp;temperature;humidity
67752;DHT22;54551;51.068;5.826;2023-03-19T00:02:23;12.10;99.90
67752;DHT22;54551;51.068;5.826;2023-03-19T00:04:49;12.10;99.90
67752;DHT22;54551;51.068;5.826;2023-03-19T00:07:15;12.00;99.90
67752;DHT22;54551;51.068;5.826;2023-03-19T00:09:42;12.00;99.90
67752;DHT22;54551;51.068;5.826;2023-03-19T00:12:09;12.00;99.90
67752;DHT22;54551;51.068;5.826;2023-03-19T00:14:35;12.00;99.90
67752;DHT22;54551;51.068;5.826;2023-03-19T00:17:01;11.90;99.90
67752;DHT22;54551;51.068;5.826;2023-03-19T00:19:27;11.90;99.90
67752;DHT22;54551;51.068;5.826;2023-03-19T00:21:53;11.90;99.90
67752;DHT22;54551;51.068;5.826;2023-03-19T00:24:19;11.90;99.90
67752;DHT22;54551;51.068;5.826;2023-03-19T00:26:45;11.90;99.90
67752;DHT22;54551;51.068;5.826;2023-03-19T00:29:12;11.90;99.90
67752;DHT22;54551;51.068;5.826;2023-03-19T00:31:38;12.00;99.90
67752;DHT22;54551;51.068;5.826;2023-03-19T00:34:05;12.00;99.90
67752;DHT22;54551;51.068;5.826;2023-03-19T00:36:31;12.00;99.90
67752;DHT22;54551;51.068;5.826;2023-03-19T00:38:57;12.00;99.90
67752;DHT22;54551;51.068;5.826;2023-03-19T00:41:23;12.10;99.90
67752;DHT22;54551;51.068;5.826;2023-03-19T00:43:54;12.10;99.90
67752;DHT22;54551;51.068;5.826;2023-03-19T00:46:20;12.10;99.90
67752;DHT22;54551;51.068;5.826;2023-03-19T00:48:48;12.10;99.90
67752;DHT22;54551;51.068;5.826;2023-03-19T00:51:15;12.10;99.90
67752;DHT22;54551;51.068;5.826;2023-03-19T00:53:43;12.10;99.90
67752;DHT22;54551;51.068;5.826;2023-03-19T00:56:11;12.10;99.90
67752;DHT22;54551;51.068;5.826;2023-03-19T00:58:37;12.10;99.90
67752;DHT22;54551;51.068;5.826;2023-03-19T01:01:07;12.10;99.90
67752;DHT22;54551;51.068;5.826;2023-03-19T01:03:34;12.10;99.90
67752;DHT22;54551;51.068;5.826;2023-03-19T01:06:00;12.10;99.90
67752;DHT22;54551;51.068;5.826;2023-03-19T01:08:26;12.10;99.90
67752;DHT22;54551;51.068;5.826;2023-03-19T01:10:54;12.20;99.90
67752;DHT22;54551;51.068;5.826;2023-03-19T01:13:20;12.20;99.90
67752;DHT22;54551;51.068;5.826;2023-03-19T01:15:50;12.30;99.90
67752;DHT22;54551;51.068;5.826;2023-03-19T01:18:17;12.40;99.90
67752;DHT22;54551;51.068;5.826;2023-03-19T01:20:43;12.50;99.90
67752;DHT22;54551;51.068;5.826;2023-03-19T01:23:09;12.50;99.90
67752;DHT22;54551;51.068;5.826;2023-03-19T01:25:35;12.50;99.90
67752;DHT22;54551;51.068;5.826;2023-03-19T01:28:02;12.60;99.90
67752;DHT22;54551;51.068;5.826;2023-03-19T01:30:28;12.60;99.90
67752;DHT22;54551;51.068;5.826;2023-03-19T01:33:07;12.60;99.90
67752;DHT22;54551;51.068;5.826;2023-03-19T01:35:37;12.60;99.90
67752;DHT22;54551;51.068;5.826;2023-03-19T01:38:04;12.60;99.90
67752;DHT22;54551;51.068;5.826;2023-03-19T01:40:31;12.60;99.90
67752;DHT22;54551;51.068;5.826;2023-03-19T01:43:23;12.60;99.90
67752;DHT22;54551;51.068;5.826;2023-03-19T01:45:59;12.60;99.90
67752;DHT22;54551;51.068;5.826;2023-03-19T01:48:59;12.60;99.90
67752;DHT22;54551;51.068;5.826;2023-03-19T01:51:29;12.50;99.90
67752;DHT22;54551;51.068;5.826;2023-03-19T01:54:17;12.50;99.90
67752;DHT22;54551;51.068;5.826;2023-03-19T01:56:57;12.50;99.90
67752;DHT22;54551;51.068;5.826;2023-03-19T01:59:56;12.50;99.90
67752;DHT22;54551;51.068;5.826;2023-03-19T02:02:41;12.50;99.90
67752;DHT22;54551;51.068;5.826;2023-03-19T02:05:18;12.40;99.90
67752;DHT22;54551;51.068;5.826;2023-03-19T02:07:58;12.40;99.90
67752;DHT22;54551;51.068;5.826;2023-03-19T02:10:25;12.40;99.90
67752;DHT22;54551;51.068;5.826;2023-03-19T02:12:51;12.30;99.90
67752;DHT22;54551;51.068;5.826;2023-03-19T02:15:20;12.30;99.90
67752;DHT22;54551;51.068;5.826;2023-03-19T02:17:47;12.30;99.90
67752;DHT22;54551;51.068;5.826;2023-03-19T02:20:17;12.30;99.90
67752;DHT22;54551;51.068;5.826;2023-03-19T02:25:53;12.20;99.90
67752;DHT22;54551;51.068;5.826;2023-03-19T02:28:22;12.20;99.90
67752;DHT22;54551;51.068;5.826;2023-03-19T02:30:52;12.20;99.90
67752;DHT22;54551;51.068;5.826;2023-03-19T02:33:18;12.20;99.90
67752;DHT22;54551;51.068;5.826;2023-03-19T02:35:50;12.20;99.90
67752;DHT22;54551;51.068;5.826;2023-03-19T02:38:20;12.20;99.90
67752;DHT22;54551;51.068;5.826;2023-03-19T02:40:59;12.20;99.90
67752;DHT22;54551;51.068;5.826;2023-03-19T02:43:26;12.20;99.90
67752;DHT22;54551;51.068;5.826;2023-03-19T02:45:53;12.30;99.90
67752;DHT22;54551;51.068;5.826;2023-03-19T02:48:19;12.30;99.90
67752;DHT22;54551;51.068;5.826;2023-03-19T02:50:45;12.30;99.90
67752;DHT22;54551;51.068;5.826;2023-03-19T02:53:11;12.30;99.90
67752;DHT22;54551;51.068;5.826;2023-03-19T02:55:37;12.30;99.90
67752;DHT22;54551;51.068;5.826;2023-03-19T02:58:03;12.30;99.90
67752;DHT22;54551;51.068;5.826;2023-03-19T03:00:29;12.30;99.90
67752;DHT22;54551;51.068;5.826;2023-03-19T03:02:56;12.40;99.90
67752;DHT22;54551;51.068;5.826;2023-03-19T03:05:23;12.40;99.90
67752;DHT22;54551;51.068;5.826;2023-03-19T03:07:49;12.40;99.90
67752;DHT22;54551;51.068;5.826;2023-03-19T03:10:16;12.40;99.90
67752;DHT22;54551;51.068;5.826;2023-03-19T03:12:42;12.30;99.90
67752;DHT22;54551;51.068;5.826;2023-03-19T03:15:09;12.20;99.90
67752;DHT22;54551;51.068;5.826;2023-03-19T03:17:37;12.20;99.90
67752;DHT22;54551;51.068;5.826;2023-03-19T03:20:04;12.10;99.90
67752;DHT22;54551;51.068;5.826;2023-03-19T03:22:31;12.00;99.90
67752;DHT22;54551;51.068;5.826;2023-03-19T03:24:57;12.00;99.90
67752;DHT22;54551;51.068;5.826;2023-03-19T03:27:23;12.00;99.90
67752;DHT22;54551;51.068;5.826;2023-03-19T03:29:49;12.00;99.90
67752;DHT22;54551;51.068;5.826;2023-03-19T03:32:16;12.00;99.90
67752;DHT22;54551;51.068;5.826;2023-03-19T03:34:41;12.00;99.90
67752;DHT22;54551;51.068;5.826;2023-03-19T03:37:07;12.00;99.90
67752;DHT22;54551;51.068;5.826;2023-03-19T03:39:35;12.00;99.90
67752;DHT22;54551;51.068;5.826;2023-03-19T03:42:02;12.00;99.90
67752;DHT22;54551;51.068;5.826;2023-03-19T03:44:30;12.00;99.90
67752;DHT22;54551;51.068;5.826;2023-03-19T03:46:56;12.10;99.90
67752;DHT22;54551;51.068;5.826;2023-03-19T03:49:22;12.00;99.90
67752;DHT22;54551;51.068;5.826;2023-03-19T03:51:48;12.00;99.90
67752;DHT22;54551;51.068;5.826;2023-03-19T03:54:14;12.00;99.90
67752;DHT22;54551;51.068;5.826;2023-03-19T03:56:40;11.90;99.90
67752;DHT22;54551;51.068;5.826;2023-03-19T03:59:06;11.90;99.90
67752;DHT22;54551;51.068;5.826;2023-03-19T04:01:32;11.90;99.90
67752;DHT22;54551;51.068;5.826;2023-03-19T04:03:58;11.80;99.90
67752;DHT22;54551;51.068;5.826;2023-03-19T04:06:26;11.80;99.90
67752;DHT22;54551;51.068;5.826;2023-03-19T04:09:13;11.80;99.90
67752;DHT22;54551;51.068;5.826;2023-03-19T04:11:40;11.80;99.90
67752;DHT22;54551;51.068;5.826;2023-03-19T04:14:06;11.90;99.90
67752;DHT22;54551;51.068;5.826;2023-03-19T04:16:34;11.90;99.90
67752;DHT22;54551;51.068;5.826;2023-03-19T04:19:00;11.90;99.90
67752;DHT22;54551;51.068;5.826;2023-03-19T04:21:26;11.90;99.90
67752;DHT22;54551;51.068;5.826;2023-03-19T04:23:53;11.90;99.90
67752;DHT22;54551;51.068;5.826;2023-03-19T04:26:19;11.90;99.90
67752;DHT22;54551;51.068;5.826;2023-03-19T04:28:45;11.90;99.90
67752;DHT22;54551;51.068;5.826;2023-03-19T04:31:11;11.90;99.90
67752;DHT22;54551;51.068;5.826;2023-03-19T04:33:42;11.90;99.90
67752;DHT22;54551;51.068;5.826;2023-03-19T04:36:08;11.90;99.90
67752;DHT22;54551;51.068;5.826;2023-03-19T04:38:35;11.90;99.90
67752;DHT22;54551;51.068;5.826;2023-03-19T04:41:01;11.90;99.90
67752;DHT22;54551;51.068;5.826;2023-03-19T04:43:29;11.90;99.90
67752;DHT22;54551;51.068;5.826;2023-03-19T04:45:56;12.00;99.90
67752;DHT22;54551;51.068;5.826;2023-03-19T04:48:22;12.00;99.90
67752;DHT22;54551;51.068;5.826;2023-03-19T04:50:50;12.00;99.90
67752;DHT22;54551;51.068;5.826;2023-03-19T04:53:18;12.00;99.90
67752;DHT22;54551;51.068;5.826;2023-03-19T04:55:48;12.10;99.90
67752;DHT22;54551;51.068;5.826;2023-03-19T04:58:19;12.10;99.90
67752;DHT22;54551;51.068;5.826;2023-03-19T05:00:51;12.10;99.90
67752;DHT22;54551;51.068;5.826;2023-03-19T05:03:24;12.00;99.90
67752;DHT22;54551;51.068;5.826;2023-03-19T05:05:52;12.00;99.90
67752;DHT22;54551;51.068;5.826;2023-03-19T05:08:19;12.00;99.90
67752;DHT22;54551;51.068;5.826;2023-03-19T05:10:45;12.00;99.90
67752;DHT22;54551;51.068;5.826;2023-03-19T05:13:11;12.00;99.90
67752;DHT22;54551;51.068;5.826;2023-03-19T05:15:42;12.00;99.90
67752;DHT22;54551;51.068;5.826;2023-03-19T05:18:11;12.00;99.90
67752;DHT22;54551;51.068;5.826;2023-03-19T05:20:39;12.10;99.90
67752;DHT22;54551;51.068;5.826;2023-03-19T05:23:14;12.10;99.90
67752;DHT22;54551;51.068;5.826;2023-03-19T05:25:44;12.10;99.90
67752;DHT22;54551;51.068;5.826;2023-03-19T05:28:14;12.10;99.90
67752;DHT22;54551;51.068;5.826;2023-03-19T05:30:41;12.10;99.90
67752;DHT22;54551;51.068;5.826;2023-03-19T05:33:21;12.10;99.90
67752;DHT22;54551;51.068;5.826;2023-03-19T05:35:48;12.10;99.90
67752;DHT22;54551;51.068;5.826;2023-03-19T05:38:26;12.10;99.90
67752;DHT22;54551;51.068;5.826;2023-03-19T05:41:05;12.10;99.90
67752;DHT22;54551;51.068;5.826;2023-03-19T05:43:49;12.10;99.90
67752;DHT22;54551;51.068;5.826;2023-03-19T05:46:31;12.00;99.90
67752;DHT22;54551;51.068;5.826;2023-03-19T05:48:57;12.10;99.90
67752;DHT22;54551;51.068;5.826;2023-03-19T05:51:24;12.10;99.90
67752;DHT22;54551;51.068;5.826;2023-03-19T05:53:50;12.00;99.90
67752;DHT22;54551;51.068;5.826;2023-03-19T05:56:28;12.10;99.90
67752;DHT22;54551;51.068;5.826;2023-03-19T05:59:08;12.00;99.90
67752;DHT22;54551;51.068;5.826;2023-03-19T06:01:38;12.10;99.90
67752;DHT22;54551;51.068;5.826;2023-03-19T06:04:04;12.10;99.90
67752;DHT22;54551;51.068;5.826;2023-03-19T06:06:30;12.10;99.90
67752;DHT22;54551;51.068;5.826;2023-03-19T06:08:56;12.10;99.90
67752;DHT22;54551;51.068;5.826;2023-03-19T06:11:38;12.10;99.90
67752;DHT22;54551;51.068;5.826;2023-03-19T06:14:40;12.10;99.90
67752;DHT22;54551;51.068;5.826;2023-03-19T06:17:26;12.10;99.90
67752;DHT22;54551;51.068;5.826;2023-03-19T06:19:55;12.10;99.90
67752;DHT22;54551;51.068;5.826;2023-03-19T06:22:21;12.20;99.90
67752;DHT22;54551;51.068;5.826;2023-03-19T06:24:47;12.20;99.90
67752;DHT22;54551;51.068;5.826;2023-03-19T06:27:13;12.30;99.90
67752;DHT22;54551;51.068;5.826;2023-03-19T06:29:39;12.30;99.90
67752;DHT22;54551;51.068;5.826;2023-03-19T06:32:16;12.30;99.90
67752;DHT22;54551;51.068;5.826;2023-03-19T06:34:42;12.30;99.90
67752;DHT22;54551;51.068;5.826;2023-03-19T06:37:08;12.40;99.90
67752;DHT22;54551;51.068;5.826;2023-03-19T06:39:34;12.40;99.90
67752;DHT22;54551;51.068;5.826;2023-03-19T06:42:00;12.50;99.90
67752;DHT22;54551;51.068;5.826;2023-03-19T06:44:27;12.50;99.90
67752;DHT22;54551;51.068;5.826;2023-03-19T06:46:53;12.60;99.90
67752;DHT22;54551;51.068;5.826;2023-03-19T06:49:20;12.60;99.90
67752;DHT22;54551;51.068;5.826;2023-03-19T06:51:46;12.70;99.90
67752;DHT22;54551;51.068;5.826;2023-03-19T06:54:12;12.70;99.90
67752;DHT22;54551;51.068;5.826;2023-03-19T06:56:38;12.70;99.90
67752;DHT22;54551;51.068;5.826;2023-03-19T06:59:04;12.70;99.90
67752;DHT22;54551;51.068;5.826;2023-03-19T07:01:30;12.70;99.90
67752;DHT22;54551;51.068;5.826;2023-03-19T07:03:56;12.70;99.90
67752;DHT22;54551;51.068;5.826;2023-03-19T07:06:22;12.70;99.90
67752;DHT22;54551;51.068;5.826;2023-03-19T07:08:48;12.70;99.90
67752;DHT22;54551;51.068;5.826;2023-03-19T07:11:14;12.70;99.90
67752;DHT22;54551;51.068;5.826;2023-03-19T07:13:41;12.60;99.90
67752;DHT22;54551;51.068;5.826;2023-03-19T07:16:07;12.70;99.90
67752;DHT22;54551;51.068;5.826;2023-03-19T07:18:33;12.70;99.90
67752;DHT22;54551;51.068;5.826;2023-03-19T07:20:59;12.80;99.90
67752;DHT22;54551;51.068;5.826;2023-03-19T07:23:25;12.80;99.90
67752;DHT22;54551;51.068;5.826;2023-03-19T07:25:51;12.70;99.90
67752;DHT22;54551;51.068;5.826;2023-03-19T07:28:17;12.70;99.90
67752;DHT22;54551;51.068;5.826;2023-03-19T07:30:43;12.80;99.90
67752;DHT22;54551;51.068;5.826;2023-03-19T07:33:09;12.70;99.90
67752;DHT22;54551;51.068;5.826;2023-03-19T07:35:35;12.70;99.90
67752;DHT22;54551;51.068;5.826;2023-03-19T07:38:01;12.70;99.90
67752;DHT22;54551;51.068;5.826;2023-03-19T07:40:27;12.70;99.90
67752;DHT22;54551;51.068;5.826;2023-03-19T07:42:53;12.80;99.90
67752;DHT22;54551;51.068;5.826;2023-03-19T07:45:19;12.80;99.90
67752;DHT22;54551;51.068;5.826;2023-03-19T07:47:46;12.80;99.90
67752;DHT22;54551;51.068;5.826;2023-03-19T07:50:14;12.80;99.90
67752;DHT22;54551;51.068;5.826;2023-03-19T07:52:40;12.90;99.90
67752;DHT22;54551;51.068;5.826;2023-03-19T07:55:06;12.90;99.90
67752;DHT22;54551;51.068;5.826;2023-03-19T07:57:32;12.90;99.90
67752;DHT22;54551;51.068;5.826;2023-03-19T07:59:58;12.90;99.90
67752;DHT22;54551;51.068;5.826;2023-03-19T08:02:24;12.90;99.90
67752;DHT22;54551;51.068;5.826;2023-03-19T08:04:50;12.90;99.90
67752;DHT22;54551;51.068;5.826;2023-03-19T08:07:16;12.90;99.90
67752;DHT22;54551;51.068;5.826;2023-03-19T08:09:42;13.00;99.90
67752;DHT22;54551;51.068;5.826;2023-03-19T08:12:08;13.20;99.90
67752;DHT22;54551;51.068;5.826;2023-03-19T08:14:34;13.50;99.90
67752;DHT22;54551;51.068;5.826;2023-03-19T08:17:00;13.90;99.90
67752;DHT22;54551;51.068;5.826;2023-03-19T08:19:26;14.20;99.90
67752;DHT22;54551;51.068;5.826;2023-03-19T08:21:52;14.50;99.90
67752;DHT22;54551;51.068;5.826;2023-03-19T08:24:18;14.80;99.90
67752;DHT22;54551;51.068;5.826;2023-03-19T08:26:44;15.70;99.90
67752;DHT22;54551;51.068;5.826;2023-03-19T08:29:11;17.00;99.90
67752;DHT22;54551;51.068;5.826;2023-03-19T08:31:37;18.40;99.90
67752;DHT22;54551;51.068;5.826;2023-03-19T08:34:03;19.70;99.90
67752;DHT22;54551;51.068;5.826;2023-03-19T08:36:30;20.70;99.90
67752;DHT22;54551;51.068;5.826;2023-03-19T08:38:56;21.10;99.90
67752;DHT22;54551;51.068;5.826;2023-03-19T08:41:23;21.20;99.90
67752;DHT22;54551;51.068;5.826;2023-03-19T08:43:50;21.20;99.90
67752;DHT22;54551;51.068;5.826;2023-03-19T08:46:16;21.30;99.90
67752;DHT22;54551;51.068;5.826;2023-03-19T08:48:42;21.10;99.90
67752;DHT22;54551;51.068;5.826;2023-03-19T08:51:09;20.70;99.90
67752;DHT22;54551;51.068;5.826;2023-03-19T08:53:36;20.70;99.90
67752;DHT22;54551;51.068;5.826;2023-03-19T08:56:05;20.90;99.90
67752;DHT22;54551;51.068;5.826;2023-03-19T08:58:32;21.30;99.90
67752;DHT22;54551;51.068;5.826;2023-03-19T09:01:06;21.70;99.90
67752;DHT22;54551;51.068;5.826;2023-03-19T09:03:33;22.20;99.90
67752;DHT22;54551;51.068;5.826;2023-03-19T09:06:00;22.50;99.90
67752;DHT22;54551;51.068;5.826;2023-03-19T09:08:27;22.70;99.90
67752;DHT22;54551;51.068;5.826;2023-03-19T09:10:54;22.80;99.90
67752;DHT22;54551;51.068;5.826;2023-03-19T09:13:20;23.00;99.90
67752;DHT22;54551;51.068;5.826;2023-03-19T09:15:46;23.30;99.90
67752;DHT22;54551;51.068;5.826;2023-03-19T09:18:12;23.70;99.90
67752;DHT22;54551;51.068;5.826;2023-03-19T09:20:38;24.00;99.90
67752;DHT22;54551;51.068;5.826;2023-03-19T09:23:04;24.30;99.90
67752;DHT22;54551;51.068;5.826;2023-03-19T09:25:30;24.80;99.90
67752;DHT22;54551;51.068;5.826;2023-03-19T09:27:56;25.20;99.90
67752;DHT22;54551;51.068;5.826;2023-03-19T09:30:22;24.90;99.90
67752;DHT22;54551;51.068;5.826;2023-03-19T09:32:48;23.90;99.90
67752;DHT22;54551;51.068;5.826;2023-03-19T09:35:14;22.70;99.90
67752;DHT22;54551;51.068;5.826;2023-03-19T09:37:40;21.70;99.90
67752;DHT22;54551;51.068;5.826;2023-03-19T09:40:08;21.00;99.90
67752;DHT22;54551;51.068;5.826;2023-03-19T09:42:47;20.50;99.90
67752;DHT22;54551;51.068;5.826;2023-03-19T09:45:16;20.40;99.90
67752;DHT22;54551;51.068;5.826;2023-03-19T09:47:43;21.00;99.90
67752;DHT22;54551;51.068;5.826;2023-03-19T09:50:23;22.00;99.90
67752;DHT22;54551;51.068;5.826;2023-03-19T09:55:44;24.50;99.90
67752;DHT22;54551;51.068;5.826;2023-03-19T10:00:43;25.00;99.90
67752;DHT22;54551;51.068;5.826;2023-03-19T10:16:45;25.80;99.90
67752;DHT22;54551;51.068;5.826;2023-03-19T10:19:15;25.70;99.90
67752;DHT22;54551;51.068;5.826;2023-03-19T10:21:49;25.10;99.90
67752;DHT22;54551;51.068;5.826;2023-03-19T10:24:36;24.30;99.90
67752;DHT22;54551;51.068;5.826;2023-03-19T10:27:18;23.50;99.90
67752;DHT22;54551;51.068;5.826;2023-03-19T10:29:44;22.70;99.90
67752;DHT22;54551;51.068;5.826;2023-03-19T10:32:40;22.10;99.90
67752;DHT22;54551;51.068;5.826;2023-03-19T10:35:21;21.40;99.90
67752;DHT22;54551;51.068;5.826;2023-03-19T10:37:48;20.80;99.90
67752;DHT22;54551;51.068;5.826;2023-03-19T10:40:29;20.30;99.90
67752;DHT22;54551;51.068;5.826;2023-03-19T10:43:17;19.90;99.90
67752;DHT22;54551;51.068;5.826;2023-03-19T10:45:45;19.40;99.90
67752;DHT22;54551;51.068;5.826;2023-03-19T10:48:16;19.10;99.90
67752;DHT22;54551;51.068;5.826;2023-03-19T10:50:47;18.80;99.90
67752;DHT22;54551;51.068;5.826;2023-03-19T10:55:55;18.40;99.90
67752;DHT22;54551;51.068;5.826;2023-03-19T10:58:27;18.30;99.90
67752;DHT22;54551;51.068;5.826;2023-03-19T11:01:03;18.20;99.90
67752;DHT22;54551;51.068;5.826;2023-03-19T11:03:38;18.10;99.90
67752;DHT22;54551;51.068;5.826;2023-03-19T11:06:33;18.00;99.90
67752;DHT22;54551;51.068;5.826;2023-03-19T11:09:11;17.90;99.90
67752;DHT22;54551;51.068;5.826;2023-03-19T11:11:43;17.90;99.90
67752;DHT22;54551;51.068;5.826;2023-03-19T11:14:16;17.80;99.90
67752;DHT22;54551;51.068;5.826;2023-03-19T11:19:27;17.80;99.90
67752;DHT22;54551;51.068;5.826;2023-03-19T11:22:16;17.70;99.90
67752;DHT22;54551;51.068;5.826;2023-03-19T11:24:52;17.80;99.90
67752;DHT22;54551;51.068;5.826;2023-03-19T11:27:18;17.80;99.90
67752;DHT22;54551;51.068;5.826;2023-03-19T11:29:50;17.90;99.90
67752;DHT22;54551;51.068;5.826;2023-03-19T11:35:02;18.30;99.90
67752;DHT22;54551;51.068;5.826;2023-03-19T11:37:58;18.50;99.90
67752;DHT22;54551;51.068;5.826;2023-03-19T11:40:46;18.90;99.90
67752;DHT22;54551;51.068;5.826;2023-03-19T11:49:14;20.80;99.90
67752;DHT22;54551;51.068;5.826;2023-03-19T11:51:52;20.80;99.90
67752;DHT22;54551;51.068;5.826;2023-03-19T12:08:16;20.40;99.90
67752;DHT22;54551;51.068;5.826;2023-03-19T12:27:24;19.00;99.90
67752;DHT22;54551;51.068;5.826;2023-03-19T12:32:53;19.40;99.90
67752;DHT22;54551;51.068;5.826;2023-03-19T12:35:32;20.30;99.90
67752;DHT22;54551;51.068;5.826;2023-03-19T12:43:25;22.40;99.90
67752;DHT22;54551;51.068;5.826;2023-03-19T12:46:12;22.70;99.90
67752;DHT22;54551;51.068;5.826;2023-03-19T12:49:25;22.50;99.90
67752;DHT22;54551;51.068;5.826;2023-03-19T12:51:56;22.00;99.90
67752;DHT22;54551;51.068;5.826;2023-03-19T12:54:34;21.40;99.90
67752;DHT22;54551;51.068;5.826;2023-03-19T13:02:41;19.90;99.90
67752;DHT22;54551;51.068;5.826;2023-03-19T13:10:33;19.40;99.90
67752;DHT22;54551;51.068;5.826;2023-03-19T13:13:25;19.40;99.90
67752;DHT22;54551;51.068;5.826;2023-03-19T13:15:58;19.40;99.90
67752;DHT22;54551;51.068;5.826;2023-03-19T13:21:27;19.20;99.90
67752;DHT22;54551;51.068;5.826;2023-03-19T13:24:23;18.90;99.90
67752;DHT22;54551;51.068;5.826;2023-03-19T13:26:52;18.70;99.90
67752;DHT22;54551;51.068;5.826;2023-03-19T13:29:24;18.60;99.90
67752;DHT22;54551;51.068;5.826;2023-03-19T13:31:52;18.30;99.90
67752;DHT22;54551;51.068;5.826;2023-03-19T13:34:21;18.10;99.90
67752;DHT22;54551;51.068;5.826;2023-03-19T13:39:28;17.80;99.90
67752;DHT22;54551;51.068;5.826;2023-03-19T13:42:33;17.60;99.90
67752;DHT22;54551;51.068;5.826;2023-03-19T13:45:02;17.40;99.90
67752;DHT22;54551;51.068;5.826;2023-03-19T13:47:39;17.20;99.90
67752;DHT22;54551;51.068;5.826;2023-03-19T13:55:44;16.90;99.90
67752;DHT22;54551;51.068;5.826;2023-03-19T13:58:25;17.00;99.90
67752;DHT22;54551;51.068;5.826;2023-03-19T14:06:37;17.20;99.90
67752;DHT22;54551;51.068;5.826;2023-03-19T14:09:26;17.40;99.90
67752;DHT22;54551;51.068;5.826;2023-03-19T14:11:53;17.40;99.90
67752;DHT22;54551;51.068;5.826;2023-03-19T14:14:21;17.50;99.90
67752;DHT22;54551;51.068;5.826;2023-03-19T14:16:50;17.60;99.90
67752;DHT22;54551;51.068;5.826;2023-03-19T14:19:19;17.70;99.90
67752;DHT22;54551;51.068;5.826;2023-03-19T14:24:28;17.80;99.90
67752;DHT22;54551;51.068;5.826;2023-03-19T14:27:01;17.80;99.90
67752;DHT22;54551;51.068;5.826;2023-03-19T14:29:29;17.90;99.90
67752;DHT22;54551;51.068;5.826;2023-03-19T14:32:00;17.90;99.90
67752;DHT22;54551;51.068;5.826;2023-03-19T14:34:39;18.00;99.90
67752;DHT22;54551;51.068;5.826;2023-03-19T14:37:26;18.00;99.90
67752;DHT22;54551;51.068;5.826;2023-03-19T14:40:12;18.10;99.90
67752;DHT22;54551;51.068;5.826;2023-03-19T14:42:54;18.20;99.90
67752;DHT22;54551;51.068;5.826;2023-03-19T14:45:40;18.20;99.90
67752;DHT22;54551;51.068;5.826;2023-03-19T14:48:18;18.20;99.90
67752;DHT22;54551;51.068;5.826;2023-03-19T14:53:40;18.30;99.90
67752;DHT22;54551;51.068;5.826;2023-03-19T14:56:25;18.30;99.90
67752;DHT22;54551;51.068;5.826;2023-03-19T14:58:56;18.40;99.90
67752;DHT22;54551;51.068;5.826;2023-03-19T15:01:23;18.40;99.90
67752;DHT22;54551;51.068;5.826;2023-03-19T15:04:03;18.40;99.90
67752;DHT22;54551;51.068;5.826;2023-03-19T15:06:35;18.40;99.90
67752;DHT22;54551;51.068;5.826;2023-03-19T15:09:26;18.30;99.90
67752;DHT22;54551;51.068;5.826;2023-03-19T15:12:22;18.20;99.90
67752;DHT22;54551;51.068;5.826;2023-03-19T15:15:23;18.10;99.90
67752;DHT22;54551;51.068;5.826;2023-03-19T15:18:02;17.90;99.90
67752;DHT22;54551;51.068;5.826;2023-03-19T15:20:35;17.80;99.90
67752;DHT22;54551;51.068;5.826;2023-03-19T15:23:04;17.60;99.90
67752;DHT22;54551;51.068;5.826;2023-03-19T15:25:31;17.50;99.90
67752;DHT22;54551;51.068;5.826;2023-03-19T15:28:09;17.30;99.90
67752;DHT22;54551;51.068;5.826;2023-03-19T15:30:35;17.20;99.90
67752;DHT22;54551;51.068;5.826;2023-03-19T15:33:02;17.10;99.90
67752;DHT22;54551;51.068;5.826;2023-03-19T15:35:31;16.90;99.90
67752;DHT22;54551;51.068;5.826;2023-03-19T15:38:00;16.80;99.90
67752;DHT22;54551;51.068;5.826;2023-03-19T15:40:29;16.70;99.90
67752;DHT22;54551;51.068;5.826;2023-03-19T15:42:59;16.60;99.90
67752;DHT22;54551;51.068;5.826;2023-03-19T15:45:26;16.50;99.90
67752;DHT22;54551;51.068;5.826;2023-03-19T15:48:24;16.40;99.90
67752;DHT22;54551;51.068;5.826;2023-03-19T15:50:57;16.30;99.90
67752;DHT22;54551;51.068;5.826;2023-03-19T15:53:30;16.20;99.90
67752;DHT22;54551;51.068;5.826;2023-03-19T15:55:56;16.10;99.90
67752;DHT22;54551;51.068;5.826;2023-03-19T15:58:25;16.00;99.90
67752;DHT22;54551;51.068;5.826;2023-03-19T16:00:53;16.00;99.90
67752;DHT22;54551;51.068;5.826;2023-03-19T16:03:35;16.00;99.90
67752;DHT22;54551;51.068;5.826;2023-03-19T16:08:48;15.90;99.90
67752;DHT22;54551;51.068;5.826;2023-03-19T16:11:27;16.00;99.90
67752;DHT22;54551;51.068;5.826;2023-03-19T16:14:07;15.90;99.90
67752;DHT22;54551;51.068;5.826;2023-03-19T16:16:34;15.90;99.90
67752;DHT22;54551;51.068;5.826;2023-03-19T16:19:04;15.90;99.90
67752;DHT22;54551;51.068;5.826;2023-03-19T16:21:36;15.80;99.90
67752;DHT22;54551;51.068;5.826;2023-03-19T16:24:08;15.80;99.90
67752;DHT22;54551;51.068;5.826;2023-03-19T16:26:42;15.80;99.90
67752;DHT22;54551;51.068;5.826;2023-03-19T16:32:16;15.70;99.90
67752;DHT22;54551;51.068;5.826;2023-03-19T16:34:57;15.60;99.90
67752;DHT22;54551;51.068;5.826;2023-03-19T16:37:41;15.60;99.90
67752;DHT22;54551;51.068;5.826;2023-03-19T16:42:40;15.50;99.90
67752;DHT22;54551;51.068;5.826;2023-03-19T16:45:20;15.40;99.90
67752;DHT22;54551;51.068;5.826;2023-03-19T16:47:55;15.40;99.90
67752;DHT22;54551;51.068;5.826;2023-03-19T16:50:30;15.30;99.90
67752;DHT22;54551;51.068;5.826;2023-03-19T16:52:58;15.30;99.90
67752;DHT22;54551;51.068;5.826;2023-03-19T16:55:33;15.20;99.90
67752;DHT22;54551;51.068;5.826;2023-03-19T17:00:28;15.00;99.90
67752;DHT22;54551;51.068;5.826;2023-03-19T17:02:56;15.00;99.90
67752;DHT22;54551;51.068;5.826;2023-03-19T17:05:23;14.90;99.90
67752;DHT22;54551;51.068;5.826;2023-03-19T17:07:50;14.80;99.90
67752;DHT22;54551;51.068;5.826;2023-03-19T17:10:18;14.80;99.90
67752;DHT22;54551;51.068;5.826;2023-03-19T17:12:47;14.70;99.90
67752;DHT22;54551;51.068;5.826;2023-03-19T17:15:34;14.70;99.90
67752;DHT22;54551;51.068;5.826;2023-03-19T17:18:02;14.60;99.90
67752;DHT22;54551;51.068;5.826;2023-03-19T17:20:37;14.50;99.90
67752;DHT22;54551;51.068;5.826;2023-03-19T17:23:12;14.50;99.90
67752;DHT22;54551;51.068;5.826;2023-03-19T17:25:39;14.40;99.90
67752;DHT22;54551;51.068;5.826;2023-03-19T17:28:05;14.40;99.90
67752;DHT22;54551;51.068;5.826;2023-03-19T17:30:32;14.40;99.90
67752;DHT22;54551;51.068;5.826;2023-03-19T17:32:58;14.40;99.90
67752;DHT22;54551;51.068;5.826;2023-03-19T17:35:24;14.30;99.90
67752;DHT22;54551;51.068;5.826;2023-03-19T17:37:50;14.30;99.90
67752;DHT22;54551;51.068;5.826;2023-03-19T17:40:23;14.30;99.90
67752;DHT22;54551;51.068;5.826;2023-03-19T17:42:51;14.30;99.90
67752;DHT22;54551;51.068;5.826;2023-03-19T17:45:20;14.30;99.90
67752;DHT22;54551;51.068;5.826;2023-03-19T17:47:53;14.20;99.90
67752;DHT22;54551;51.068;5.826;2023-03-19T17:50:24;14.10;99.90
67752;DHT22;54551;51.068;5.826;2023-03-19T17:52:51;14.10;99.90